createdAt,value
2023-04-29T00:01:11.039Z,95.40
2023-04-29T00:02:42.883Z,95.38
2023-04-29T00:04:14.775Z,95.19
2023-04-29T00:05:46.669Z,95.52
2023-04-29T00:07:18.398Z,95.41
2023-04-29T00:08:52.014Z,95.71
2023-04-29T00:10:23.732Z,95.70
2023-04-29T00:11:55.556Z,95.74
2023-04-29T00:13:27.169Z,95.39
2023-04-29T00:14:59.655Z,95.65
2023-04-29T00:16:31.262Z,95.45
2023-04-29T00:18:03.270Z,95.98
2023-04-29T00:19:34.955Z,95.76
2023-04-29T00:21:06.673Z,95.85
2023-04-29T00:22:38.763Z,95.60
2023-04-29T00:24:10.827Z,95.22
2023-04-29T00:25:42.372Z,95.33
2023-04-29T00:27:14.011Z,94.91
2023-04-29T00:28:45.758Z,95.05
2023-04-29T00:30:17.426Z,95.61
2023-04-29T00:31:49.407Z,95.57
2023-04-29T00:33:20.951Z,95.66
2023-04-29T00:34:52.534Z,95.90
2023-04-29T00:36:24.183Z,95.85
2023-04-29T00:37:55.862Z,95.50
2023-04-29T00:39:27.501Z,95.22
2023-04-29T00:40:59.223Z,94.96
2023-04-29T00:42:33.277Z,95.45
2023-04-29T00:44:04.923Z,95.17
2023-04-29T00:45:36.531Z,95.18
2023-04-29T00:47:11.545Z,95.23
2023-04-29T00:48:43.869Z,95.44
2023-04-29T00:50:15.639Z,95.04
2023-04-29T00:51:47.955Z,95.23
2023-04-29T00:53:20.843Z,95.39
2023-04-29T00:54:52.668Z,95.38
2023-04-29T00:56:24.668Z,95.48
2023-04-29T00:57:57.206Z,95.76
2023-04-29T00:59:33.188Z,95.93
2023-04-29T01:01:05.527Z,96.19
2023-04-29T01:02:38.533Z,95.44
2023-04-29T01:04:10.513Z,95.38
2023-04-29T01:05:45.560Z,95.22
2023-04-29T01:07:23.858Z,95.16
2023-04-29T01:09:19.086Z,95.58
2023-04-29T01:11:07.087Z,95.47
2023-04-29T01:12:42.934Z,95.31
2023-04-29T01:14:15.690Z,96.12
2023-04-29T01:16:04.485Z,95.80
2023-04-29T01:17:48.757Z,96.03
2023-04-29T01:19:45.606Z,96.65
2023-04-29T01:21:18.079Z,96.41
2023-04-29T01:22:49.762Z,95.65
2023-04-29T01:24:21.776Z,95.58
2023-04-29T01:25:54.371Z,95.37
2023-04-29T01:27:53.746Z,95.05
2023-04-29T01:29:53.365Z,94.46
2023-04-29T01:31:31.743Z,94.72
2023-04-29T01:33:28.515Z,95.15
2023-04-29T01:35:08.875Z,95.71
2023-04-29T01:36:55.814Z,96.06
2023-04-29T01:38:37.815Z,96.20
2023-04-29T01:40:37.326Z,95.91
2023-04-29T01:42:33.933Z,96.13
2023-04-29T01:44:14.079Z,96.35
2023-04-29T01:45:45.827Z,96.10
2023-04-29T01:47:20.309Z,96.01
2023-04-29T01:48:55.623Z,96.07
2023-04-29T01:50:27.350Z,96.00
2023-04-29T01:52:02.595Z,95.91
2023-04-29T01:53:35.126Z,95.99
2023-04-29T01:55:07.120Z,96.07
2023-04-29T01:56:46.866Z,96.38
2023-04-29T01:58:26.721Z,96.22
2023-04-29T02:00:21.925Z,95.67
2023-04-29T02:01:58.800Z,95.48
2023-04-29T02:03:30.967Z,95.89
2023-04-29T02:05:04.539Z,95.98
2023-04-29T02:06:36.191Z,96.29
2023-04-29T02:08:09.850Z,96.28
2023-04-29T02:09:46.414Z,96.38
2023-04-29T02:11:18.590Z,96.36
2023-04-29T02:12:50.274Z,96.34
2023-04-29T02:14:23.569Z,96.93
2023-04-29T02:15:55.872Z,97.14
2023-04-29T02:17:27.741Z,97.10
2023-04-29T02:18:59.621Z,96.83
2023-04-29T02:20:31.310Z,96.19
2023-04-29T02:22:03.182Z,96.44
2023-04-29T02:23:35.552Z,96.32
2023-04-29T02:25:07.428Z,96.65
2023-04-29T02:26:39.068Z,97.09
2023-04-29T02:28:10.735Z,97.66
2023-04-29T02:29:44.813Z,97.83
2023-04-29T02:31:16.579Z,98.20
2023-04-29T02:32:53.247Z,97.82
2023-04-29T02:34:24.983Z,97.35
2023-04-29T02:35:59.802Z,97.26
2023-04-29T02:37:32.044Z,96.73
2023-04-29T02:39:03.693Z,96.38
2023-04-29T02:40:35.271Z,96.31
2023-04-29T02:42:07.127Z,95.82
2023-04-29T02:43:41.490Z,96.39
2023-04-29T02:45:13.289Z,96.57
2023-04-29T02:46:45.842Z,96.37
2023-04-29T02:48:18.194Z,96.43
2023-04-29T02:49:50.053Z,96.56
2023-04-29T02:51:21.718Z,96.57
2023-04-29T02:52:54.000Z,96.58
2023-04-29T02:54:26.089Z,96.62
2023-04-29T02:55:57.772Z,97.07
2023-04-29T02:57:32.735Z,96.75
2023-04-29T02:59:04.263Z,96.97
2023-04-29T03:00:35.972Z,97.16
2023-04-29T03:02:07.589Z,96.87
2023-04-29T03:03:39.961Z,96.88
2023-04-29T03:05:11.841Z,97.26
2023-04-29T03:06:43.735Z,97.73
2023-04-29T03:08:16.545Z,97.44
2023-04-29T03:09:48.171Z,97.64
2023-04-29T03:11:20.609Z,97.43
2023-04-29T03:12:52.227Z,97.11
2023-04-29T03:14:23.995Z,96.84
2023-04-29T03:15:58.663Z,97.31
2023-04-29T03:17:31.929Z,96.88
2023-04-29T03:19:03.582Z,96.49
2023-04-29T03:20:35.329Z,96.02
2023-04-29T03:22:11.473Z,96.67
2023-04-29T03:23:44.851Z,96.64
2023-04-29T03:25:22.948Z,96.25
2023-04-29T03:26:55.620Z,96.29
2023-04-29T03:28:27.390Z,96.10
2023-04-29T03:29:59.001Z,97.40
2023-04-29T03:31:30.918Z,98.26
2023-04-29T03:33:02.602Z,98.79
2023-04-29T03:34:35.297Z,98.67
2023-04-29T03:36:21.410Z,98.21
2023-04-29T03:38:02.701Z,97.98
2023-04-29T03:39:37.233Z,97.68
2023-04-29T03:41:09.551Z,98.07
2023-04-29T03:42:41.634Z,98.48
2023-04-29T03:44:13.714Z,98.21
2023-04-29T03:45:45.384Z,98.20
2023-04-29T03:47:19.372Z,98.48
2023-04-29T03:48:52.036Z,98.43
2023-04-29T03:50:23.826Z,98.39
2023-04-29T03:51:55.500Z,98.53
2023-04-29T03:53:27.342Z,98.71
2023-04-29T03:54:59.901Z,98.92
2023-04-29T03:56:32.405Z,98.84
2023-04-29T03:58:04.223Z,98.92
2023-04-29T03:59:36.549Z,99.09
2023-04-29T04:01:08.409Z,99.47
2023-04-29T04:02:47.013Z,99.76
2023-04-29T04:04:19.615Z,99.40
2023-04-29T04:05:53.643Z,99.11
2023-04-29T04:07:26.315Z,98.97
2023-04-29T04:09:20.904Z,98.99
2023-04-29T04:10:52.803Z,99.20
2023-04-29T04:12:32.844Z,99.14
2023-04-29T04:14:05.766Z,98.67
2023-04-29T04:15:37.852Z,98.51
2023-04-29T04:17:09.589Z,98.43
2023-04-29T04:18:42.909Z,98.39
2023-04-29T04:20:14.615Z,98.46
2023-04-29T04:21:46.272Z,98.78
2023-04-29T04:23:17.906Z,98.92
2023-04-29T04:24:50.002Z,98.68
2023-04-29T04:26:23.052Z,98.45
2023-04-29T04:27:57.392Z,99.34
2023-04-29T04:29:54.140Z,99.71
2023-04-29T04:31:31.181Z,99.21
2023-04-29T04:33:03.041Z,98.74
2023-04-29T04:34:35.495Z,98.72
2023-04-29T04:36:08.170Z,98.65
2023-04-29T04:37:39.807Z,97.87
2023-04-29T04:39:11.568Z,97.79
2023-04-29T04:40:44.233Z,98.04
2023-04-29T04:42:27.984Z,97.69
2023-04-29T04:44:03.101Z,97.22
2023-04-29T04:45:43.866Z,97.83
2023-04-29T04:47:15.969Z,97.70
2023-04-29T04:48:55.152Z,97.26
2023-04-29T04:50:30.328Z,97.97
2023-04-29T04:52:01.938Z,97.80
2023-04-29T04:53:33.579Z,97.77
2023-04-29T04:55:12.304Z,97.21
2023-04-29T04:56:48.762Z,97.28
2023-04-29T04:58:20.409Z,96.95
2023-04-29T04:59:52.977Z,97.32
2023-04-29T05:01:24.850Z,97.33
2023-04-29T05:02:56.555Z,98.04
2023-04-29T05:04:28.551Z,98.12
2023-04-29T05:06:01.052Z,98.44
2023-04-29T05:07:35.923Z,97.89
2023-04-29T05:09:09.542Z,97.41
2023-04-29T05:10:41.285Z,96.83
2023-04-29T05:12:12.995Z,97.58
2023-04-29T05:13:45.000Z,97.12
2023-04-29T05:15:19.217Z,96.63
2023-04-29T05:16:53.461Z,96.70
2023-04-29T05:18:25.717Z,96.16
2023-04-29T05:19:57.608Z,96.04
2023-04-29T05:21:29.738Z,97.07
2023-04-29T05:23:03.141Z,96.89
2023-04-29T05:24:39.799Z,96.90
2023-04-29T05:26:11.499Z,96.73
2023-04-29T05:27:43.119Z,97.23
2023-04-29T05:29:19.490Z,97.07
2023-04-29T05:31:01.513Z,96.71
2023-04-29T05:32:33.478Z,96.62
2023-04-29T05:34:05.738Z,96.35
2023-04-29T05:35:37.713Z,97.27
2023-04-29T05:37:09.485Z,97.37
2023-04-29T05:38:53.582Z,97.07
2023-04-29T05:40:25.258Z,96.73
2023-04-29T05:42:02.243Z,96.79
2023-04-29T05:43:42.900Z,96.81
2023-04-29T05:45:14.606Z,96.16
2023-04-29T05:46:46.467Z,95.87
2023-04-29T05:48:18.199Z,95.56
2023-04-29T05:49:50.174Z,95.08
2023-04-29T05:51:21.908Z,95.71
2023-04-29T05:52:54.734Z,96.34
2023-04-29T05:54:26.614Z,96.36
2023-04-29T05:55:58.396Z,95.82
2023-04-29T05:57:30.265Z,95.72
2023-04-29T05:59:01.966Z,95.63
2023-04-29T06:00:33.771Z,95.50
2023-04-29T06:02:14.712Z,95.48
2023-04-29T06:03:47.415Z,95.00
2023-04-29T06:05:34.807Z,94.85
2023-04-29T06:07:37.006Z,94.44
2023-04-29T06:09:26.934Z,94.41
2023-04-29T06:11:03.356Z,91.74
2023-04-29T06:12:35.183Z,91.06
2023-04-29T06:14:07.026Z,89.50
2023-04-29T06:15:39.068Z,90.20
2023-04-29T06:17:11.313Z,87.42
2023-04-29T06:18:42.998Z,86.92
2023-04-29T06:20:14.724Z,87.36
2023-04-29T06:21:46.384Z,88.13
2023-04-29T06:23:18.011Z,86.62
2023-04-29T06:24:50.130Z,85.75
2023-04-29T06:26:30.491Z,85.02
2023-04-29T06:28:03.404Z,85.02
2023-04-29T06:29:36.492Z,81.82
2023-04-29T06:31:08.658Z,78.54
2023-04-29T06:32:40.662Z,72.68
2023-04-29T06:34:13.277Z,73.58
2023-04-29T06:36:13.935Z,70.34
2023-04-29T06:38:04.591Z,67.18
2023-04-29T06:39:42.013Z,65.85
2023-04-29T06:41:24.427Z,61.88
2023-04-29T06:43:25.390Z,58.68
2023-04-29T06:45:20.271Z,59.08
2023-04-29T06:47:04.543Z,54.44
2023-04-29T06:48:47.904Z,52.42
2023-04-29T06:50:20.143Z,52.25
2023-04-29T06:51:51.764Z,53.90
2023-04-29T06:53:24.509Z,56.50
2023-04-29T06:54:56.327Z,58.25
2023-04-29T06:56:27.971Z,60.78
2023-04-29T06:57:59.673Z,61.24
2023-04-29T06:59:31.437Z,58.94
2023-04-29T07:01:04.290Z,56.27
2023-04-29T07:02:36.131Z,53.08
2023-04-29T07:04:07.897Z,53.04
2023-04-29T07:05:41.824Z,51.93
2023-04-29T07:07:13.506Z,50.56
2023-04-29T07:08:45.121Z,51.52
2023-04-29T07:10:16.789Z,54.81
2023-04-29T07:11:48.420Z,56.65
2023-04-29T07:13:20.231Z,57.63
2023-04-29T07:14:54.653Z,55.75
2023-04-29T07:16:27.196Z,56.86
2023-04-29T07:17:58.942Z,57.31
2023-04-29T07:19:31.455Z,55.45
2023-04-29T07:21:03.084Z,59.11
2023-04-29T07:22:35.168Z,61.27
2023-04-29T07:24:07.637Z,61.87
2023-04-29T07:25:39.252Z,61.50
2023-04-29T07:27:10.956Z,62.55
2023-04-29T07:28:43.790Z,62.22
2023-04-29T07:30:15.451Z,61.99
2023-04-29T07:31:47.200Z,61.31
2023-04-29T07:33:18.825Z,62.14
2023-04-29T07:34:52.821Z,62.25
2023-04-29T07:36:25.792Z,62.86
2023-04-29T07:37:57.841Z,62.07
2023-04-29T07:39:30.698Z,60.53
2023-04-29T07:41:04.530Z,62.23
2023-04-29T07:42:36.178Z,63.03
2023-04-29T07:44:09.787Z,61.25
2023-04-29T07:45:41.618Z,61.69
2023-04-29T07:47:13.289Z,63.18
2023-04-29T07:48:46.161Z,64.89
2023-04-29T07:50:17.913Z,62.50
2023-04-29T07:51:49.489Z,64.18
2023-04-29T07:53:21.754Z,64.87
2023-04-29T07:54:58.063Z,64.61
2023-04-29T07:56:29.694Z,64.80
2023-04-29T07:58:01.227Z,64.04
2023-04-29T07:59:33.003Z,62.23
2023-04-29T08:01:12.022Z,60.01
2023-04-29T08:02:44.855Z,60.62
2023-04-29T08:04:19.387Z,57.31
2023-04-29T08:05:56.351Z,57.18
2023-04-29T08:07:28.343Z,56.94
2023-04-29T08:09:03.137Z,57.11
2023-04-29T08:10:40.915Z,55.93
2023-04-29T08:12:13.848Z,56.72
2023-04-29T08:13:45.708Z,55.31
2023-04-29T08:15:18.597Z,55.34
2023-04-29T08:16:50.151Z,54.03
2023-04-29T08:18:21.806Z,52.21
2023-04-29T08:19:53.444Z,52.11
2023-04-29T08:21:25.280Z,52.21
2023-04-29T08:22:59.606Z,51.05
2023-04-29T08:24:33.456Z,51.15
2023-04-29T08:26:05.183Z,51.96
2023-04-29T08:27:36.888Z,50.47
2023-04-29T08:29:08.994Z,50.86
2023-04-29T08:30:41.230Z,50.26
2023-04-29T08:32:13.688Z,50.69
2023-04-29T08:33:45.711Z,52.48
2023-04-29T08:35:17.281Z,51.45
2023-04-29T08:36:49.105Z,50.19
2023-04-29T08:38:20.803Z,49.06
2023-04-29T08:39:52.398Z,49.77
2023-04-29T08:41:25.312Z,50.06
2023-04-29T08:42:58.714Z,49.14
2023-04-29T08:44:32.658Z,48.52
2023-04-29T08:46:07.046Z,48.69
2023-04-29T08:47:39.227Z,49.56
2023-04-29T08:49:11.813Z,49.96
2023-04-29T08:50:44.411Z,50.26
2023-04-29T08:52:16.032Z,52.04
2023-04-29T08:53:47.592Z,52.78
2023-04-29T08:55:19.314Z,53.34
2023-04-29T08:56:52.050Z,53.72
2023-04-29T08:58:26.383Z,53.32
2023-04-29T09:00:01.207Z,51.85
2023-04-29T09:01:33.070Z,50.70
2023-04-29T09:03:22.037Z,51.26
2023-04-29T09:05:09.025Z,51.33
2023-04-29T09:06:40.651Z,52.64
2023-04-29T09:08:12.831Z,53.27
2023-04-29T09:09:44.613Z,52.56
2023-04-29T09:11:16.728Z,51.74
2023-04-29T09:12:48.339Z,53.28
2023-04-29T09:14:21.076Z,52.64
2023-04-29T09:15:52.779Z,50.21
2023-04-29T09:17:46.122Z,50.41
2023-04-29T09:19:35.170Z,51.83
2023-04-29T09:21:14.587Z,52.31
2023-04-29T09:22:57.561Z,52.78
2023-04-29T09:24:31.602Z,52.80
2023-04-29T09:26:03.195Z,53.40
2023-04-29T09:27:34.795Z,51.47
2023-04-29T09:29:15.964Z,51.62
2023-04-29T09:30:47.678Z,52.14
2023-04-29T09:32:22.831Z,51.17
2023-04-29T09:33:57.110Z,50.99
2023-04-29T09:35:28.720Z,51.67
2023-04-29T09:37:00.315Z,49.72
2023-04-29T09:38:31.917Z,50.35
2023-04-29T09:40:03.941Z,50.42
2023-04-29T09:41:35.698Z,49.66
2023-04-29T09:43:19.055Z,48.73
2023-04-29T09:44:52.223Z,48.79
2023-04-29T09:46:24.031Z,50.28
2023-04-29T09:48:03.095Z,48.94
2023-04-29T09:49:38.885Z,49.15
2023-04-29T09:51:10.465Z,48.32
2023-04-29T09:52:45.108Z,49.30
2023-04-29T09:54:28.610Z,51.62
2023-04-29T09:56:00.267Z,50.80
2023-04-29T09:57:44.261Z,49.25
2023-04-29T09:59:17.218Z,50.02
2023-04-29T10:00:48.969Z,48.95
2023-04-29T10:02:20.969Z,49.96
2023-04-29T10:03:55.454Z,49.77
2023-04-29T10:05:32.957Z,48.97
2023-04-29T10:07:04.607Z,48.76
2023-04-29T10:08:36.380Z,47.62
2023-04-29T10:10:11.362Z,48.11
2023-04-29T10:11:48.739Z,48.39
2023-04-29T10:13:21.190Z,46.31
2023-04-29T10:15:32.595Z,46.52
2023-04-29T10:17:16.898Z,46.14
2023-04-29T10:18:54.129Z,45.98
2023-04-29T10:20:26.224Z,46.79
2023-04-29T10:22:00.743Z,46.06
2023-04-29T10:23:33.651Z,45.32
2023-04-29T10:25:06.925Z,45.37
2023-04-29T10:26:39.419Z,46.73
2023-04-29T10:28:16.596Z,46.96
2023-04-29T10:29:49.917Z,46.32
2023-04-29T10:31:22.775Z,46.28
2023-04-29T10:32:57.049Z,43.96
2023-04-29T10:34:31.867Z,42.60
2023-04-29T10:36:04.139Z,44.22
2023-04-29T10:37:37.226Z,43.86
2023-04-29T10:39:19.370Z,43.39
2023-04-29T10:40:53.164Z,42.38
2023-04-29T10:42:43.453Z,43.40
2023-04-29T10:44:15.071Z,43.72
2023-04-29T10:45:46.661Z,45.29
2023-04-29T10:47:21.565Z,45.08
2023-04-29T10:49:11.320Z,46.51
2023-04-29T10:50:49.036Z,47.46
2023-04-29T10:52:21.347Z,47.66
2023-04-29T10:54:10.608Z,47.24
2023-04-29T10:55:43.465Z,48.03
2023-04-29T10:57:21.419Z,48.61
2023-04-29T10:58:52.949Z,48.14
2023-04-29T11:00:28.898Z,48.23
2023-04-29T11:02:00.571Z,48.24
2023-04-29T11:03:55.528Z,48.85
2023-04-29T11:05:35.663Z,48.68
2023-04-29T11:07:07.343Z,48.51
2023-04-29T11:08:43.139Z,49.85
2023-04-29T11:10:14.819Z,51.02
2023-04-29T11:12:00.574Z,49.06
2023-04-29T11:13:37.896Z,46.65
2023-04-29T11:15:11.501Z,48.71
2023-04-29T11:17:02.385Z,48.15
2023-04-29T11:18:35.359Z,48.04
2023-04-29T11:20:13.479Z,48.06
2023-04-29T11:21:47.332Z,48.29
2023-04-29T11:23:19.474Z,46.61
2023-04-29T11:25:02.019Z,47.57
2023-04-29T11:26:37.447Z,45.96
2023-04-29T11:28:10.302Z,47.01
2023-04-29T11:29:42.186Z,45.96
2023-04-29T11:31:15.304Z,48.03
2023-04-29T11:32:48.868Z,47.02
2023-04-29T11:34:25.236Z,48.16
2023-04-29T11:35:57.664Z,47.12
2023-04-29T11:37:29.796Z,45.78
2023-04-29T11:39:04.483Z,46.74
2023-04-29T11:40:36.140Z,47.18
2023-04-29T11:42:08.286Z,45.26
2023-04-29T11:43:40.109Z,45.33
2023-04-29T11:45:12.295Z,46.00
2023-04-29T11:46:45.648Z,44.61
2023-04-29T11:48:21.337Z,44.68
2023-04-29T11:49:53.357Z,44.48
2023-04-29T11:51:25.165Z,44.84
2023-04-29T11:52:58.295Z,45.04
2023-04-29T11:54:30.648Z,45.42
2023-04-29T11:56:02.608Z,45.38
2023-04-29T11:57:34.419Z,46.12
2023-04-29T11:59:08.214Z,45.59
2023-04-29T12:00:40.183Z,46.75
2023-04-29T12:02:13.827Z,47.22
2023-04-29T12:03:46.474Z,46.54
2023-04-29T12:05:19.498Z,47.32
2023-04-29T12:06:53.190Z,47.78
2023-04-29T12:08:26.731Z,45.88
2023-04-29T12:09:59.974Z,44.90
2023-04-29T12:11:32.470Z,44.37
2023-04-29T12:13:04.686Z,44.32
2023-04-29T12:14:37.551Z,44.20
2023-04-29T12:16:10.769Z,46.61
2023-04-29T12:17:43.702Z,46.41
2023-04-29T12:19:15.950Z,46.24
2023-04-29T12:20:51.558Z,45.41
2023-04-29T12:22:23.197Z,44.06
2023-04-29T12:23:54.916Z,44.53
2023-04-29T12:25:28.143Z,45.77
2023-04-29T12:27:00.899Z,46.44
2023-04-29T12:28:33.591Z,45.33
2023-04-29T12:30:09.830Z,45.00
2023-04-29T12:31:42.133Z,44.86
2023-04-29T12:33:31.841Z,44.48
2023-04-29T12:35:03.666Z,44.84
2023-04-29T12:36:37.294Z,45.51
2023-04-29T12:38:09.545Z,44.65
2023-04-29T12:39:41.522Z,43.05
2023-04-29T12:41:17.488Z,43.04
2023-04-29T12:42:49.364Z,42.83
2023-04-29T12:44:21.353Z,43.70
2023-04-29T12:46:14.938Z,43.00
2023-04-29T12:47:46.632Z,42.64
2023-04-29T12:49:19.147Z,44.21
2023-04-29T12:50:52.359Z,41.47
2023-04-29T12:52:23.938Z,42.26
2023-04-29T12:53:55.637Z,43.49
2023-04-29T12:55:27.592Z,43.43
2023-04-29T12:56:59.352Z,43.52
2023-04-29T12:58:31.514Z,41.61
2023-04-29T13:00:04.305Z,35.72
2023-04-29T13:01:37.102Z,38.80
2023-04-29T13:03:09.371Z,40.71
2023-04-29T13:04:43.562Z,40.97
2023-04-29T13:06:17.073Z,30.84
2023-04-29T13:07:49.734Z,33.20
2023-04-29T13:09:21.250Z,36.72
2023-04-29T13:10:53.764Z,32.55
2023-04-29T13:12:25.871Z,32.99
2023-04-29T13:13:58.071Z,35.39
2023-04-29T13:15:30.266Z,37.28
2023-04-29T13:17:02.250Z,40.26
2023-04-29T13:18:34.796Z,32.46
2023-04-29T13:20:10.666Z,33.05
2023-04-29T13:21:42.596Z,27.45
2023-04-29T13:23:14.201Z,28.46
2023-04-29T13:24:46.554Z,29.48
2023-04-29T13:26:18.472Z,28.58
2023-04-29T13:27:50.112Z,29.91
2023-04-29T13:29:21.699Z,33.06
2023-04-29T13:30:53.430Z,36.81
2023-04-29T13:32:25.379Z,36.25
2023-04-29T13:33:57.174Z,30.21
2023-04-29T13:35:28.882Z,33.47
2023-04-29T13:37:00.686Z,36.84
2023-04-29T13:38:32.509Z,35.56
2023-04-29T13:40:07.204Z,34.18
2023-04-29T13:41:44.205Z,25.55
2023-04-29T13:43:26.402Z,21.62
2023-04-29T13:45:07.862Z,20.89
2023-04-29T13:46:39.952Z,19.83
2023-04-29T13:48:20.835Z,17.25
2023-04-29T13:57:02.779Z,17.73
2023-04-29T14:00:14.833Z,21.28
2023-04-29T14:03:19.405Z,32.86
2023-04-29T14:04:51.694Z,36.14
2023-04-29T14:06:23.528Z,38.28
2023-04-29T14:07:55.195Z,39.32
2023-04-29T14:09:26.848Z,39.66
2023-04-29T14:10:58.509Z,40.77
2023-04-29T14:12:30.135Z,40.78
2023-04-29T14:14:02.952Z,43.91
2023-04-29T14:15:35.192Z,44.42
2023-04-29T14:17:07.215Z,44.89
2023-04-29T14:18:38.755Z,45.76
2023-04-29T14:20:10.829Z,46.06
2023-04-29T14:21:42.447Z,46.23
2023-04-29T14:23:14.033Z,46.23
2023-04-29T14:24:46.378Z,45.92
2023-04-29T14:26:27.802Z,47.15
2023-04-29T14:27:59.732Z,48.56
2023-04-29T14:29:31.678Z,48.46
2023-04-29T14:31:03.683Z,48.25
2023-04-29T14:32:35.351Z,48.92
2023-04-29T14:34:07.329Z,49.42
2023-04-29T14:35:38.953Z,49.55
2023-04-29T14:37:10.673Z,50.17
2023-04-29T14:38:42.349Z,50.82
2023-04-29T14:40:13.929Z,50.41
2023-04-29T14:41:45.643Z,49.87
2023-04-29T14:43:17.170Z,50.30
2023-04-29T14:44:48.798Z,50.06
2023-04-29T14:46:22.355Z,50.66
2023-04-29T14:47:54.209Z,51.07
2023-04-29T14:49:26.243Z,51.04
2023-04-29T14:50:57.916Z,51.85
2023-04-29T14:52:29.522Z,52.21
2023-04-29T14:54:01.625Z,51.71
2023-04-29T14:55:33.345Z,51.86
2023-04-29T14:57:04.935Z,52.31
2023-04-29T14:58:36.497Z,52.39
2023-04-29T15:00:08.650Z,51.74
2023-04-29T15:01:40.542Z,52.75
2023-04-29T15:03:20.197Z,52.84
2023-04-29T15:04:54.577Z,52.88
2023-04-29T15:06:27.587Z,51.88
2023-04-29T15:08:01.430Z,51.06
2023-04-29T15:09:33.104Z,52.40
2023-04-29T15:11:05.119Z,52.95
2023-04-29T15:12:37.276Z,53.47
2023-04-29T15:14:09.315Z,52.99
2023-04-29T15:15:41.217Z,53.19
2023-04-29T15:17:13.269Z,53.25
2023-04-29T15:18:45.853Z,52.40
2023-04-29T15:20:17.581Z,52.79
2023-04-29T15:21:49.680Z,52.71
2023-04-29T15:23:21.470Z,50.84
2023-04-29T15:24:53.636Z,51.32
2023-04-29T15:26:26.783Z,52.86
2023-04-29T15:27:59.099Z,52.17
2023-04-29T15:29:32.604Z,52.25
2023-04-29T15:31:05.551Z,53.11
2023-04-29T15:32:38.250Z,52.80
2023-04-29T15:34:10.031Z,52.88
2023-04-29T15:35:41.691Z,53.06
2023-04-29T15:37:13.304Z,53.26
2023-04-29T15:38:45.082Z,52.70
2023-04-29T15:40:17.694Z,52.81
2023-04-29T15:41:49.442Z,52.26
2023-04-29T15:43:22.718Z,53.50
2023-04-29T15:44:55.097Z,53.43
2023-04-29T15:46:27.942Z,53.00
2023-04-29T15:47:59.793Z,52.42
2023-04-29T15:49:31.489Z,53.07
2023-04-29T15:51:03.250Z,53.28
2023-04-29T15:52:35.334Z,53.46
2023-04-29T15:54:07.709Z,54.28
2023-04-29T15:55:39.354Z,55.52
2023-04-29T15:57:11.181Z,55.31
2023-04-29T15:58:42.994Z,55.05
2023-04-29T16:00:14.905Z,55.11
2023-04-29T16:01:46.830Z,54.78
2023-04-29T16:03:19.262Z,54.39
2023-04-29T16:04:51.040Z,54.96
2023-04-29T16:06:23.533Z,54.46
2023-04-29T16:07:55.148Z,53.90
2023-04-29T16:09:27.134Z,54.52
2023-04-29T16:10:58.901Z,55.62
2023-04-29T16:12:30.704Z,55.97
2023-04-29T16:14:02.444Z,56.18
2023-04-29T16:15:34.431Z,55.10
2023-04-29T16:17:06.197Z,55.00
2023-04-29T16:18:37.986Z,55.09
2023-04-29T16:20:10.062Z,55.92
2023-04-29T16:21:45.374Z,56.78
2023-04-29T16:23:16.963Z,56.50
2023-04-29T16:24:49.904Z,57.56
2023-04-29T16:26:21.720Z,57.79
2023-04-29T16:27:53.765Z,58.08
2023-04-29T16:29:25.725Z,56.48
2023-04-29T16:30:57.403Z,57.14
2023-04-29T16:32:29.179Z,57.40
2023-04-29T16:34:03.336Z,57.44
2023-04-29T16:35:36.497Z,57.39
2023-04-29T16:37:12.423Z,56.60
2023-04-29T16:38:44.202Z,57.17
2023-04-29T16:40:15.980Z,57.60
2023-04-29T16:41:47.635Z,56.84
2023-04-29T16:43:19.642Z,56.58
2023-04-29T16:44:51.604Z,57.29
2023-04-29T16:46:24.325Z,57.63
2023-04-29T16:47:56.205Z,57.97
2023-04-29T16:49:28.070Z,57.21
2023-04-29T16:50:59.678Z,57.32
2023-04-29T16:52:31.340Z,57.79
2023-04-29T16:54:03.026Z,58.21
2023-04-29T16:55:34.617Z,58.72
2023-04-29T16:57:06.265Z,58.86
2023-04-29T16:58:38.644Z,59.71
2023-04-29T17:00:11.199Z,59.76
2023-04-29T17:01:42.986Z,59.48
2023-04-29T17:03:15.078Z,58.83
2023-04-29T17:04:47.142Z,58.80
2023-04-29T17:06:19.114Z,58.78
2023-04-29T17:07:50.818Z,58.38
2023-04-29T17:09:25.897Z,58.08
2023-04-29T17:10:57.799Z,58.46
2023-04-29T17:12:29.602Z,59.02
2023-04-29T17:14:01.238Z,58.83
2023-04-29T17:15:33.238Z,58.75
2023-04-29T17:17:04.837Z,59.33
2023-04-29T17:18:37.355Z,59.59
2023-04-29T17:20:09.605Z,59.47
2023-04-29T17:21:41.211Z,59.17
2023-04-29T17:23:13.074Z,59.49
2023-04-29T17:24:47.475Z,59.85
2023-04-29T17:26:21.163Z,59.69
2023-04-29T17:27:52.893Z,59.42
2023-04-29T17:29:24.453Z,59.35
2023-04-29T17:30:59.932Z,60.36
2023-04-29T17:32:38.764Z,59.99
2023-04-29T17:34:34.222Z,60.47
2023-04-29T17:36:06.509Z,59.70
2023-04-29T17:37:38.394Z,60.08
2023-04-29T17:39:12.391Z,59.61
2023-04-29T17:40:44.733Z,59.73
2023-04-29T17:42:17.175Z,60.16
2023-04-29T17:43:48.781Z,60.14
2023-04-29T17:45:20.576Z,60.39
2023-04-29T17:46:52.335Z,60.53
2023-04-29T17:48:24.003Z,60.96
2023-04-29T17:49:56.319Z,60.73
2023-04-29T17:51:29.089Z,60.79
2023-04-29T17:53:00.888Z,61.29
2023-04-29T17:54:32.753Z,61.51
2023-04-29T17:56:04.828Z,61.82
2023-04-29T17:57:38.091Z,61.57
2023-04-29T17:59:09.853Z,61.51
2023-04-29T18:00:41.862Z,61.91
2023-04-29T18:02:13.615Z,61.34
2023-04-29T18:03:47.138Z,61.59
2023-04-29T18:05:20.321Z,61.83
2023-04-29T18:06:52.340Z,61.87
2023-04-29T18:08:23.969Z,61.94
2023-04-29T18:09:55.855Z,61.94
2023-04-29T18:11:27.862Z,62.47
2023-04-29T18:12:59.802Z,62.54
2023-04-29T18:14:32.202Z,62.62
2023-04-29T18:16:03.997Z,62.26
2023-04-29T18:17:35.685Z,62.24
2023-04-29T18:19:07.521Z,63.06
2023-04-29T18:20:43.023Z,62.21
2023-04-29T18:22:14.762Z,61.69
2023-04-29T18:23:46.437Z,62.11
2023-04-29T18:25:18.078Z,62.11
2023-04-29T18:26:49.644Z,62.35
2023-04-29T18:28:25.369Z,62.98
2023-04-29T18:29:57.427Z,63.59
2023-04-29T18:31:29.236Z,63.94
2023-04-29T18:33:01.867Z,63.49
2023-04-29T18:34:35.200Z,63.49
2023-04-29T18:36:07.585Z,63.84
2023-04-29T18:37:40.036Z,64.06
2023-04-29T18:39:12.217Z,63.79
2023-04-29T18:40:46.098Z,63.87
2023-04-29T18:42:18.293Z,63.47
2023-04-29T18:43:50.230Z,63.74
2023-04-29T18:45:22.818Z,63.87
2023-04-29T18:46:54.567Z,64.23
2023-04-29T18:48:27.955Z,64.35
2023-04-29T18:49:59.573Z,64.33
2023-04-29T18:51:31.512Z,63.07
2023-04-29T18:53:03.556Z,63.23
2023-04-29T18:54:35.656Z,63.70
2023-04-29T18:56:08.459Z,64.18
2023-04-29T18:57:40.507Z,63.89
2023-04-29T18:59:15.897Z,64.28
2023-04-29T19:00:47.738Z,64.39
2023-04-29T19:02:20.000Z,63.65
2023-04-29T19:03:51.830Z,64.72
2023-04-29T19:05:23.550Z,64.23
2023-04-29T19:06:55.552Z,64.33
2023-04-29T19:08:27.259Z,64.45
2023-04-29T19:09:58.863Z,64.00
2023-04-29T19:11:30.590Z,64.50
2023-04-29T19:13:02.286Z,64.18
2023-04-29T19:14:34.055Z,64.57
2023-04-29T19:16:06.134Z,65.00
2023-04-29T19:17:37.870Z,64.76
2023-04-29T19:19:09.880Z,64.63
2023-04-29T19:20:41.590Z,64.96
2023-04-29T19:22:13.287Z,65.59
2023-04-29T19:23:45.014Z,65.45
2023-04-29T19:25:16.874Z,65.46
2023-04-29T19:26:48.566Z,65.70
2023-04-29T19:28:21.084Z,65.29
2023-04-29T19:29:53.192Z,65.36
2023-04-29T19:31:25.008Z,65.48
2023-04-29T19:32:56.994Z,65.82
2023-04-29T19:34:28.652Z,66.72
2023-04-29T19:36:00.371Z,66.89
2023-04-29T19:37:31.992Z,66.75
2023-04-29T19:39:04.497Z,66.65
2023-04-29T19:40:36.129Z,66.63
2023-04-29T19:42:07.911Z,66.69
2023-04-29T19:43:39.550Z,67.13
2023-04-29T19:45:12.582Z,66.58
2023-04-29T19:46:44.344Z,67.49
2023-04-29T19:48:26.316Z,67.06
2023-04-29T19:49:58.078Z,66.39
2023-04-29T19:51:29.842Z,66.10
2023-04-29T19:53:01.604Z,66.15
2023-04-29T19:54:35.197Z,66.85
2023-04-29T19:56:07.316Z,66.81
2023-04-29T19:57:39.094Z,67.10
2023-04-29T19:59:13.280Z,66.68
2023-04-29T20:00:45.448Z,66.99
2023-04-29T20:02:17.127Z,67.84
2023-04-29T20:03:49.511Z,68.36
2023-04-29T20:05:21.322Z,68.32
2023-04-29T20:06:53.034Z,67.98
2023-04-29T20:08:25.160Z,67.94
2023-04-29T20:09:57.036Z,68.38
2023-04-29T20:11:29.014Z,67.48
2023-04-29T20:13:01.083Z,67.22
2023-04-29T20:14:33.121Z,67.20
2023-04-29T20:16:05.061Z,67.04
2023-04-29T20:17:37.545Z,67.93
2023-04-29T20:19:09.574Z,68.09
2023-04-29T20:20:41.326Z,68.04